sensor_id;sensor_type;location;lat;lon;timestamp;pressure;altitude;pressure_sealevel;temperature;humidity
82743;BME280;72483;50.656;7.216;2023-11-21T00:01:41;100358.06;;;19.03;55.91
82743;BME280;72483;50.656;7.216;2023-11-21T00:04:07;100357.81;;;19.00;55.85
82743;BME280;72483;50.656;7.216;2023-11-21T00:06:34;100365.59;;;19.03;55.43
82743;BME280;72483;50.656;7.216;2023-11-21T00:09:02;100358.34;;;19.02;55.82
82743;BME280;72483;50.656;7.216;2023-11-21T00:11:28;100361.97;;;19.02;55.78
82743;BME280;72483;50.656;7.216;2023-11-21T00:13:55;100355.56;;;19.02;55.74
82743;BME280;72483;50.656;7.216;2023-11-21T00:16:22;100361.97;;;19.02;55.79
82743;BME280;72483;50.656;7.216;2023-11-21T00:18:48;100357.50;;;19.01;55.59
82743;BME280;72483;50.656;7.216;2023-11-21T00:21:16;100363.94;;;19.02;55.43
82743;BME280;72483;50.656;7.216;2023-11-21T00:23:43;100365.59;;;19.03;55.38
82743;BME280;72483;50.656;7.216;2023-11-21T00:26:10;100364.75;;;19.02;55.44
82743;BME280;72483;50.656;7.216;2023-11-21T00:28:37;100361.97;;;19.02;55.38
82743;BME280;72483;50.656;7.216;2023-11-21T00:31:04;100366.72;;;19.02;55.51
82743;BME280;72483;50.656;7.216;2023-11-21T00:33:31;100368.69;;;19.01;55.75
82743;BME280;72483;50.656;7.216;2023-11-21T00:35:58;100367.56;;;19.02;55.73
82743;BME280;72483;50.656;7.216;2023-11-21T00:38:25;100368.69;;;19.01;55.31
82743;BME280;72483;50.656;7.216;2023-11-21T00:40:52;100370.63;;;19.01;55.86
82743;BME280;72483;50.656;7.216;2023-11-21T00:43:22;100379.56;;;19.03;55.79
82743;BME280;72483;50.656;7.216;2023-11-21T00:45:49;100385.41;;;19.01;55.10
82743;BME280;72483;50.656;7.216;2023-11-21T00:48:16;100380.44;;;18.98;55.58
82743;BME280;72483;50.656;7.216;2023-11-21T00:50:43;100383.56;;;18.97;55.47
82743;BME280;72483;50.656;7.216;2023-11-21T00:53:09;100379.38;;;18.94;55.68
82743;BME280;72483;50.656;7.216;2023-11-21T00:55:37;100387.47;;;18.96;55.37
82743;BME280;72483;50.656;7.216;2023-11-21T00:58:05;100389.44;;;18.95;55.52
82743;BME280;72483;50.656;7.216;2023-11-21T01:00:33;100395.84;;;18.96;55.34
82743;BME280;72483;50.656;7.216;2023-11-21T01:03:00;100402.25;;;18.96;55.68
82743;BME280;72483;50.656;7.216;2023-11-21T01:05:27;100402.25;;;18.96;55.73
82743;BME280;72483;50.656;7.216;2023-11-21T01:07:54;100405.88;;;18.97;55.58
82743;BME280;72483;50.656;7.216;2023-11-21T01:10:21;100408.97;;;18.95;55.48
82743;BME280;72483;50.656;7.216;2023-11-21T01:12:47;100415.38;;;18.96;55.49
82743;BME280;72483;50.656;7.216;2023-11-21T01:15:14;100406.16;;;18.95;55.48
82743;BME280;72483;50.656;7.216;2023-11-21T01:17:42;100412.88;;;18.94;55.34
82743;BME280;72483;50.656;7.216;2023-11-21T01:20:09;100416.50;;;18.95;55.63
82743;BME280;72483;50.656;7.216;2023-11-21T01:22:37;100424.03;;;18.94;55.84
82743;BME280;72483;50.656;7.216;2023-11-21T01:25:04;100420.44;;;18.94;55.64
82743;BME280;72483;50.656;7.216;2023-11-21T01:27:32;100430.78;;;18.93;55.48
82743;BME280;72483;50.656;7.216;2023-11-21T01:29:59;100424.34;;;18.93;55.72
82743;BME280;72483;50.656;7.216;2023-11-21T01:32:25;100428.28;;;18.92;55.28
82743;BME280;72483;50.656;7.216;2023-11-21T01:34:53;100432.22;;;18.91;55.60
82743;BME280;72483;50.656;7.216;2023-11-21T01:37:20;100433.34;;;18.90;55.85
82743;BME280;72483;50.656;7.216;2023-11-21T01:39:46;100434.16;;;18.90;55.53
82743;BME280;72483;50.656;7.216;2023-11-21T01:42:13;100433.84;;;18.92;55.76
82743;BME280;72483;50.656;7.216;2023-11-21T01:44:40;100435.00;;;18.91;55.29
82743;BME280;72483;50.656;7.216;2023-11-21T01:47:08;100436.97;;;18.90;55.39
82743;BME280;72483;50.656;7.216;2023-11-21T01:49:36;100438.06;;;18.89;55.42
82743;BME280;72483;50.656;7.216;2023-11-21T01:52:05;100435.59;;;18.88;55.75
82743;BME280;72483;50.656;7.216;2023-11-21T01:54:32;100436.72;;;18.87;55.33
82743;BME280;72483;50.656;7.216;2023-11-21T01:56:59;100442.31;;;18.87;55.68
82743;BME280;72483;50.656;7.216;2023-11-21T01:59:34;100437.84;;;18.86;55.30
82743;BME280;72483;50.656;7.216;2023-11-21T02:02:02;100443.44;;;18.86;55.52
82743;BME280;72483;50.656;7.216;2023-11-21T02:04:30;100445.38;;;18.85;55.23
82743;BME280;72483;50.656;7.216;2023-11-21T02:06:57;100438.97;;;18.85;55.75
82743;BME280;72483;50.656;7.216;2023-11-21T02:09:26;100439.28;;;18.83;55.58
82743;BME280;72483;50.656;7.216;2023-11-21T02:11:53;100454.91;;;18.84;55.32
82743;BME280;72483;50.656;7.216;2023-11-21T02:14:20;100450.44;;;18.83;55.39
82743;BME280;72483;50.656;7.216;2023-11-21T02:16:48;100459.66;;;18.84;55.33
82743;BME280;72483;50.656;7.216;2023-11-21T02:19:17;100462.72;;;18.82;55.35
82743;BME280;72483;50.656;7.216;2023-11-21T02:21:45;100467.47;;;18.82;55.81
82743;BME280;72483;50.656;7.216;2023-11-21T02:24:14;100468.63;;;18.81;55.73
82743;BME280;72483;50.656;7.216;2023-11-21T02:26:42;100463.88;;;18.81;55.36
82743;BME280;72483;50.656;7.216;2023-11-21T02:29:09;100463.88;;;18.81;55.26
82743;BME280;72483;50.656;7.216;2023-11-21T02:31:37;100466.66;;;18.81;55.57
82743;BME280;72483;50.656;7.216;2023-11-21T02:34:13;100466.94;;;18.80;55.77
82743;BME280;72483;50.656;7.216;2023-11-21T02:36:39;100473.66;;;18.79;55.68
82743;BME280;72483;50.656;7.216;2023-11-21T02:39:08;100478.44;;;18.78;55.50
82743;BME280;72483;50.656;7.216;2023-11-21T02:41:36;100476.75;;;18.77;55.80
82743;BME280;72483;50.656;7.216;2023-11-21T02:44:03;100477.88;;;18.76;55.78
82743;BME280;72483;50.656;7.216;2023-11-21T02:46:31;100478.72;;;18.77;56.09
82743;BME280;72483;50.656;7.216;2023-11-21T02:48:59;100477.34;;;18.74;55.32
82743;BME280;72483;50.656;7.216;2023-11-21T02:51:28;100478.72;;;18.77;55.63
82743;BME280;72483;50.656;7.216;2023-11-21T02:53:55;100487.09;;;18.77;55.86
82743;BME280;72483;50.656;7.216;2023-11-21T02:56:24;100484.59;;;18.75;55.92
82743;BME280;72483;50.656;7.216;2023-11-21T02:58:52;100491.31;;;18.74;55.75
82743;BME280;72483;50.656;7.216;2023-11-21T03:01:18;100483.78;;;18.75;55.52
82743;BME280;72483;50.656;7.216;2023-11-21T03:03:45;100485.72;;;18.74;55.56
82743;BME280;72483;50.656;7.216;2023-11-21T03:06:12;100482.09;;;18.74;55.53
82743;BME280;72483;50.656;7.216;2023-11-21T03:08:39;100487.97;;;18.72;55.37
82743;BME280;72483;50.656;7.216;2023-11-21T03:11:07;100479.91;;;18.71;55.26
82743;BME280;72483;50.656;7.216;2023-11-21T03:13:34;100486.31;;;18.71;55.83
82743;BME280;72483;50.656;7.216;2023-11-21T03:16:02;100486.59;;;18.70;55.36
82743;BME280;72483;50.656;7.216;2023-11-21T03:18:28;100491.34;;;18.69;55.95
82743;BME280;72483;50.656;7.216;2023-11-21T03:20:55;100495.81;;;18.70;55.83
82743;BME280;72483;50.656;7.216;2023-11-21T03:23:22;100500.88;;;18.68;55.68
82743;BME280;72483;50.656;7.216;2023-11-21T03:25:48;100503.66;;;18.68;55.86
82743;BME280;72483;50.656;7.216;2023-11-21T03:28:15;100502.00;;;18.67;55.84
82743;BME280;72483;50.656;7.216;2023-11-21T03:30:41;100507.56;;;18.67;55.79
82743;BME280;72483;50.656;7.216;2023-11-21T03:33:09;100508.69;;;18.66;55.93
82743;BME280;72483;50.656;7.216;2023-11-21T03:35:36;100521.53;;;18.67;55.87
82743;BME280;72483;50.656;7.216;2023-11-21T03:38:02;100523.78;;;18.65;55.47
82743;BME280;72483;50.656;7.216;2023-11-21T03:40:29;100530.47;;;18.64;55.86
82743;BME280;72483;50.656;7.216;2023-11-21T03:42:57;100524.91;;;18.64;55.89
82743;BME280;72483;50.656;7.216;2023-11-21T03:45:23;100532.16;;;18.65;55.41
82743;BME280;72483;50.656;7.216;2023-11-21T03:47:50;100524.06;;;18.63;55.58
82743;BME280;72483;50.656;7.216;2023-11-21T03:50:18;100532.16;;;18.65;55.85
82743;BME280;72483;50.656;7.216;2023-11-21T03:52:44;100534.38;;;18.63;55.89
82743;BME280;72483;50.656;7.216;2023-11-21T03:55:11;100537.19;;;18.63;55.45
82743;BME280;72483;50.656;7.216;2023-11-21T03:57:37;100542.75;;;18.63;56.00
82743;BME280;72483;50.656;7.216;2023-11-21T04:00:05;100548.66;;;18.61;56.02
82743;BME280;72483;50.656;7.216;2023-11-21T04:02:33;100543.91;;;18.62;55.52
82743;BME280;72483;50.656;7.216;2023-11-21T04:05:00;100549.50;;;18.62;55.57
82743;BME280;72483;50.656;7.216;2023-11-21T04:07:28;100553.41;;;18.61;55.61
82743;BME280;72483;50.656;7.216;2023-11-21T04:09:54;100543.34;;;18.60;56.01
82743;BME280;72483;50.656;7.216;2023-11-21T04:12:21;100553.69;;;18.59;56.13
82743;BME280;72483;50.656;7.216;2023-11-21T04:14:47;100551.25;;;18.53;56.00
82743;BME280;72483;50.656;7.216;2023-11-21T04:17:14;100560.41;;;18.58;55.74
82743;BME280;72483;50.656;7.216;2023-11-21T04:19:40;100575.19;;;18.59;55.70
82743;BME280;72483;50.656;7.216;2023-11-21T04:22:07;100573.50;;;18.58;55.94
82743;BME280;72483;50.656;7.216;2023-11-21T04:24:34;100576.59;;;18.56;55.97
82743;BME280;72483;50.656;7.216;2023-11-21T04:27:01;100586.94;;;18.56;56.17
82743;BME280;72483;50.656;7.216;2023-11-21T04:29:28;100583.31;;;18.55;55.66
82743;BME280;72483;50.656;7.216;2023-11-21T04:31:55;100587.22;;;18.54;55.83
82743;BME280;72483;50.656;7.216;2023-11-21T04:34:21;100585.53;;;18.53;55.90
82743;BME280;72483;50.656;7.216;2023-11-21T04:36:48;100587.53;;;18.53;55.97
82743;BME280;72483;50.656;7.216;2023-11-21T04:39:14;100596.16;;;18.51;55.49
82743;BME280;72483;50.656;7.216;2023-11-21T04:41:42;100599.81;;;18.52;56.05
82743;BME280;72483;50.656;7.216;2023-11-21T04:44:08;100597.00;;;18.52;55.61
82743;BME280;72483;50.656;7.216;2023-11-21T04:46:35;100602.06;;;18.50;55.81
82743;BME280;72483;50.656;7.216;2023-11-21T04:49:01;100610.13;;;18.51;55.46
82743;BME280;72483;50.656;7.216;2023-11-21T04:51:28;100604.00;;;18.49;55.73
82743;BME280;72483;50.656;7.216;2023-11-21T04:53:54;100597.56;;;18.49;55.83
82743;BME280;72483;50.656;7.216;2023-11-21T04:56:21;100603.16;;;18.49;55.58
82743;BME280;72483;50.656;7.216;2023-11-21T04:58:49;100605.09;;;18.48;55.74
82743;BME280;72483;50.656;7.216;2023-11-21T05:01:15;100613.47;;;18.48;56.02
82743;BME280;72483;50.656;7.216;2023-11-21T05:03:42;100607.88;;;18.48;55.68
82743;BME280;72483;50.656;7.216;2023-11-21T05:06:09;100616.25;;;18.48;55.83
82743;BME280;72483;50.656;7.216;2023-11-21T05:08:36;100618.22;;;18.48;55.80
82743;BME280;72483;50.656;7.216;2023-11-21T05:11:03;100618.50;;;18.46;55.86
82743;BME280;72483;50.656;7.216;2023-11-21T05:13:29;100622.09;;;18.47;55.63
82743;BME280;72483;50.656;7.216;2023-11-21T05:15:58;100618.50;;;18.46;55.74
82743;BME280;72483;50.656;7.216;2023-11-21T05:18:25;100616.84;;;18.45;55.86
82743;BME280;72483;50.656;7.216;2023-11-21T05:20:52;100615.16;;;18.44;55.98
82743;BME280;72483;50.656;7.216;2023-11-21T05:23:19;100611.25;;;18.45;55.97
82743;BME280;72483;50.656;7.216;2023-11-21T05:25:45;100608.75;;;18.44;55.98
82743;BME280;72483;50.656;7.216;2023-11-21T05:28:12;100617.13;;;18.44;55.69
82743;BME280;72483;50.656;7.216;2023-11-21T05:30:39;100614.63;;;18.42;56.15
82743;BME280;72483;50.656;7.216;2023-11-21T05:33:06;100629.41;;;18.43;55.76
82743;BME280;72483;50.656;7.216;2023-11-21T05:35:33;100630.25;;;18.43;56.29
82743;BME280;72483;50.656;7.216;2023-11-21T05:37:59;100634.16;;;18.42;55.59
82743;BME280;72483;50.656;7.216;2023-11-21T05:40:26;100635.59;;;18.40;56.18
82743;BME280;72483;50.656;7.216;2023-11-21T05:42:55;100638.63;;;18.43;55.72
82743;BME280;72483;50.656;7.216;2023-11-21T05:45:21;100646.16;;;18.43;55.78
82743;BME280;72483;50.656;7.216;2023-11-21T05:47:48;100647.00;;;18.43;55.79
82743;BME280;72483;50.656;7.216;2023-11-21T05:50:16;100648.09;;;18.42;56.31
82743;BME280;72483;50.656;7.216;2023-11-21T05:52:44;100650.06;;;18.42;55.94
82743;BME280;72483;50.656;7.216;2023-11-21T05:55:12;100652.56;;;18.43;55.88
82743;BME280;72483;50.656;7.216;2023-11-21T05:57:39;100654.53;;;18.43;56.42
82743;BME280;72483;50.656;7.216;2023-11-21T06:00:07;100653.38;;;18.44;55.81
82743;BME280;72483;50.656;7.216;2023-11-21T06:02:38;100651.44;;;18.44;56.18
82743;BME280;72483;50.656;7.216;2023-11-21T06:05:07;100655.06;;;18.45;56.42
82743;BME280;72483;50.656;7.216;2023-11-21T06:07:35;100667.31;;;18.44;56.51
82743;BME280;72483;50.656;7.216;2023-11-21T06:10:01;100669.31;;;18.43;56.07
82743;BME280;72483;50.656;7.216;2023-11-21T06:12:31;100666.22;;;18.45;55.77
82743;BME280;72483;50.656;7.216;2023-11-21T06:15:01;100670.66;;;18.46;56.34
82743;BME280;72483;50.656;7.216;2023-11-21T06:17:29;100677.38;;;18.45;56.36
82743;BME280;72483;50.656;7.216;2023-11-21T06:19:55;100690.19;;;18.46;56.43
82743;BME280;72483;50.656;7.216;2023-11-21T06:22:22;100697.41;;;18.47;55.98
82743;BME280;72483;50.656;7.216;2023-11-21T06:24:50;100691.84;;;18.47;55.95
82743;BME280;72483;50.656;7.216;2023-11-21T06:27:17;100693.50;;;18.48;56.35
82743;BME280;72483;50.656;7.216;2023-11-21T06:29:43;100698.25;;;18.47;56.08
82743;BME280;72483;50.656;7.216;2023-11-21T06:32:10;100707.47;;;18.48;55.97
82743;BME280;72483;50.656;7.216;2023-11-21T06:34:36;100700.78;;;18.49;56.37
82743;BME280;72483;50.656;7.216;2023-11-21T06:37:03;100705.50;;;18.48;56.05
82743;BME280;72483;50.656;7.216;2023-11-21T06:39:29;100706.34;;;18.49;56.35
82743;BME280;72483;50.656;7.216;2023-11-21T06:41:57;100708.28;;;18.48;56.34
82743;BME280;72483;50.656;7.216;2023-11-21T06:44:25;100713.03;;;18.48;55.85
82743;BME280;72483;50.656;7.216;2023-11-21T06:46:52;100720.28;;;18.49;56.15
82743;BME280;72483;50.656;7.216;2023-11-21T06:49:18;100720.28;;;18.49;56.16
82743;BME280;72483;50.656;7.216;2023-11-21T06:51:45;100723.09;;;18.49;55.83
82743;BME280;72483;50.656;7.216;2023-11-21T06:54:12;100719.22;;;18.50;56.28
82743;BME280;72483;50.656;7.216;2023-11-21T06:56:39;100734.81;;;18.51;55.96
82743;BME280;72483;50.656;7.216;2023-11-21T06:59:07;100729.22;;;18.51;56.16
82743;BME280;72483;50.656;7.216;2023-11-21T07:01:35;100737.59;;;18.51;56.02
82743;BME280;72483;50.656;7.216;2023-11-21T07:04:04;100739.25;;;18.52;56.16
82743;BME280;72483;50.656;7.216;2023-11-21T07:06:31;100743.72;;;18.53;55.80
82743;BME280;72483;50.656;7.216;2023-11-21T07:08:58;100744.00;;;18.51;56.02
82743;BME280;72483;50.656;7.216;2023-11-21T07:11:26;100749.59;;;18.51;55.90
82743;BME280;72483;50.656;7.216;2023-11-21T07:13:52;100749.59;;;18.51;56.12
82743;BME280;72483;50.656;7.216;2023-11-21T07:16:20;100760.47;;;18.53;56.26
82743;BME280;72483;50.656;7.216;2023-11-21T07:18:47;100761.59;;;18.52;55.91
82743;BME280;72483;50.656;7.216;2023-11-21T07:21:14;100772.75;;;18.52;56.25
82743;BME280;72483;50.656;7.216;2023-11-21T07:23:41;100777.44;;;18.56;56.41
82743;BME280;72483;50.656;7.216;2023-11-21T07:26:07;100783.84;;;18.62;56.34
82743;BME280;72483;50.656;7.216;2023-11-21T07:28:36;100789.16;;;18.58;56.35
82743;BME280;72483;50.656;7.216;2023-11-21T07:31:02;100799.72;;;18.61;56.02
82743;BME280;72483;50.656;7.216;2023-11-21T07:33:31;100800.59;;;18.57;56.86
82743;BME280;72483;50.656;7.216;2023-11-21T07:35:57;100800.91;;;18.55;57.04
82743;BME280;72483;50.656;7.216;2023-11-21T07:38:24;100802.84;;;18.55;57.01
82743;BME280;72483;50.656;7.216;2023-11-21T07:40:50;100804.78;;;18.54;57.24
82743;BME280;72483;50.656;7.216;2023-11-21T07:43:17;100815.13;;;18.54;57.29
82743;BME280;72483;50.656;7.216;2023-11-21T07:45:44;100815.13;;;18.54;57.10
82743;BME280;72483;50.656;7.216;2023-11-21T07:48:11;100819.28;;;18.56;57.24
82743;BME280;72483;50.656;7.216;2023-11-21T07:50:39;100830.44;;;18.56;56.88
82743;BME280;72483;50.656;7.216;2023-11-21T07:53:05;100834.63;;;18.59;57.00
82743;BME280;72483;50.656;7.216;2023-11-21T07:55:32;100841.00;;;18.59;56.66
82743;BME280;72483;50.656;7.216;2023-11-21T07:57:58;100841.84;;;18.60;56.98
82743;BME280;72483;50.656;7.216;2023-11-21T08:00:25;100845.22;;;18.62;56.69
82743;BME280;72483;50.656;7.216;2023-11-21T08:02:55;100848.28;;;18.60;56.61
82743;BME280;72483;50.656;7.216;2023-11-21T08:05:21;100845.22;;;18.62;56.55
82743;BME280;72483;50.656;7.216;2023-11-21T08:07:49;100848.00;;;18.62;56.54
82743;BME280;72483;50.656;7.216;2023-11-21T08:10:16;100845.47;;;18.60;56.47
82743;BME280;72483;50.656;7.216;2023-11-21T08:12:42;100853.28;;;18.63;56.38
82743;BME280;72483;50.656;7.216;2023-11-21T08:15:09;100839.06;;;18.60;56.52
82743;BME280;72483;50.656;7.216;2023-11-21T08:17:36;100842.94;;;18.64;56.77
82743;BME280;72483;50.656;7.216;2023-11-21T08:20:03;100851.31;;;18.64;56.28
82743;BME280;72483;50.656;7.216;2023-11-21T08:22:30;100863.03;;;18.66;56.26
82743;BME280;72483;50.656;7.216;2023-11-21T08:24:58;100849.38;;;18.64;56.60
82743;BME280;72483;50.656;7.216;2023-11-21T08:27:25;100859.13;;;18.67;56.04
82743;BME280;72483;50.656;7.216;2023-11-21T08:29:51;100863.84;;;18.67;56.56
82743;BME280;72483;50.656;7.216;2023-11-21T08:32:18;100865.53;;;18.68;56.01
82743;BME280;72483;50.656;7.216;2023-11-21T08:34:44;100865.53;;;18.68;56.01
82743;BME280;72483;50.656;7.216;2023-11-21T08:37:14;100867.75;;;18.71;55.91
82743;BME280;72483;50.656;7.216;2023-11-21T08:39:41;100879.16;;;18.74;56.31
82743;BME280;72483;50.656;7.216;2023-11-21T08:42:09;100883.38;;;18.72;56.24
82743;BME280;72483;50.656;7.216;2023-11-21T08:44:35;100871.38;;;18.71;56.29
82743;BME280;72483;50.656;7.216;2023-11-21T08:47:04;100875.53;;;18.74;56.31
82743;BME280;72483;50.656;7.216;2023-11-21T08:49:30;100871.91;;;18.73;56.25
82743;BME280;72483;50.656;7.216;2023-11-21T08:51:57;100875.81;;;18.72;56.37
82743;BME280;72483;50.656;7.216;2023-11-21T08:54:25;100884.19;;;18.72;56.46
82743;BME280;72483;50.656;7.216;2023-11-21T08:56:52;100894.22;;;18.73;56.15
82743;BME280;72483;50.656;7.216;2023-11-21T08:59:19;100891.16;;;18.75;55.78
82743;BME280;72483;50.656;7.216;2023-11-21T09:01:46;100892.00;;;18.75;56.27
82743;BME280;72483;50.656;7.216;2023-11-21T09:04:13;100900.38;;;18.75;55.66
82743;BME280;72483;50.656;7.216;2023-11-21T09:06:39;100892.00;;;18.75;55.85
82743;BME280;72483;50.656;7.216;2023-11-21T09:09:06;100902.88;;;18.77;55.92
82743;BME280;72483;50.656;7.216;2023-11-21T09:11:33;100906.19;;;18.79;56.04
82743;BME280;72483;50.656;7.216;2023-11-21T09:14:01;100907.03;;;18.79;55.83
82743;BME280;72483;50.656;7.216;2023-11-21T09:16:29;100915.41;;;18.79;55.82
82743;BME280;72483;50.656;7.216;2023-11-21T09:18:57;100919.88;;;18.80;55.49
82743;BME280;72483;50.656;7.216;2023-11-21T09:21:23;100924.34;;;18.81;55.77
82743;BME280;72483;50.656;7.216;2023-11-21T09:23:50;100921.56;;;18.81;55.54
82743;BME280;72483;50.656;7.216;2023-11-21T09:26:18;100919.00;;;18.85;55.67
82743;BME280;72483;50.656;7.216;2023-11-21T09:28:45;100930.47;;;18.83;55.44
82743;BME280;72483;50.656;7.216;2023-11-21T09:31:13;100935.47;;;18.86;56.02
82743;BME280;72483;50.656;7.216;2023-11-21T09:33:42;100933.78;;;18.85;55.63
82743;BME280;72483;50.656;7.216;2023-11-21T09:36:11;100948.88;;;18.84;55.47
82743;BME280;72483;50.656;7.216;2023-11-21T09:38:38;100936.84;;;18.89;55.48
82743;BME280;72483;50.656;7.216;2023-11-21T09:41:11;100941.31;;;18.90;55.69
82743;BME280;72483;50.656;7.216;2023-11-21T09:43:43;100944.38;;;18.88;55.37
82743;BME280;72483;50.656;7.216;2023-11-21T09:46:12;100948.31;;;18.87;55.28
82743;BME280;72483;50.656;7.216;2023-11-21T09:48:47;100951.09;;;18.87;55.92
82743;BME280;72483;50.656;7.216;2023-11-21T09:51:18;100954.97;;;18.91;55.04
82743;BME280;72483;50.656;7.216;2023-11-21T09:53:48;100946.88;;;18.90;55.46
82743;BME280;72483;50.656;7.216;2023-11-21T09:56:17;100960.00;;;18.89;55.75
82743;BME280;72483;50.656;7.216;2023-11-21T09:58:50;100949.38;;;18.91;55.58
82743;BME280;72483;50.656;7.216;2023-11-21T10:01:17;100948.84;;;18.89;56.18
82743;BME280;72483;50.656;7.216;2023-11-21T10:03:46;100951.94;;;18.88;56.42
82743;BME280;72483;50.656;7.216;2023-11-21T10:06:13;100959.47;;;18.87;56.12
82743;BME280;72483;50.656;7.216;2023-11-21T10:08:41;100960.31;;;18.88;56.32
82743;BME280;72483;50.656;7.216;2023-11-21T10:11:11;100957.22;;;18.89;55.95
82743;BME280;72483;50.656;7.216;2023-11-21T10:13:40;100961.97;;;18.89;56.42
82743;BME280;72483;50.656;7.216;2023-11-21T10:16:07;100965.59;;;18.89;56.47
82743;BME280;72483;50.656;7.216;2023-11-21T10:18:37;100967.81;;;18.92;55.96
82743;BME280;72483;50.656;7.216;2023-11-21T10:21:07;100973.66;;;18.96;56.29
82743;BME280;72483;50.656;7.216;2023-11-21T10:23:34;100966.38;;;18.95;56.02
82743;BME280;72483;50.656;7.216;2023-11-21T10:26:01;100968.63;;;18.93;56.03
82743;BME280;72483;50.656;7.216;2023-11-21T10:28:28;100971.97;;;18.95;56.02
82743;BME280;72483;50.656;7.216;2023-11-21T10:30:55;100967.22;;;19.00;55.76
82743;BME280;72483;50.656;7.216;2023-11-21T10:33:27;100971.38;;;18.98;55.91
82743;BME280;72483;50.656;7.216;2023-11-21T10:35:54;100970.56;;;18.97;55.63
82743;BME280;72483;50.656;7.216;2023-11-21T10:38:22;100975.31;;;18.97;55.74
82743;BME280;72483;50.656;7.216;2023-11-21T10:40:51;100967.75;;;18.97;55.92
82743;BME280;72483;50.656;7.216;2023-11-21T10:43:20;100969.75;;;18.97;55.59
82743;BME280;72483;50.656;7.216;2023-11-21T10:45:50;100964.97;;;18.97;55.61
82743;BME280;72483;50.656;7.216;2023-11-21T10:48:17;100974.72;;;19.05;55.74
82743;BME280;72483;50.656;7.216;2023-11-21T10:50:45;100979.72;;;19.08;55.74
82743;BME280;72483;50.656;7.216;2023-11-21T10:53:11;100971.66;;;19.01;55.58
82743;BME280;72483;50.656;7.216;2023-11-21T10:55:39;100972.50;;;19.02;55.16
82743;BME280;72483;50.656;7.216;2023-11-21T10:58:06;100967.13;;;19.10;55.27
82743;BME280;72483;50.656;7.216;2023-11-21T11:00:36;100976.09;;;19.07;55.26
82743;BME280;72483;50.656;7.216;2023-11-21T11:03:05;100972.50;;;19.02;55.59
82743;BME280;72483;50.656;7.216;2023-11-21T11:05:40;100972.28;;;18.93;52.85
82743;BME280;72483;50.656;7.216;2023-11-21T11:08:08;100984.50;;;18.97;55.31
82743;BME280;72483;50.656;7.216;2023-11-21T11:10:39;100966.91;;;19.02;55.55
82743;BME280;72483;50.656;7.216;2023-11-21T11:13:07;100970.75;;;19.11;55.22
82743;BME280;72483;50.656;7.216;2023-11-21T11:15:34;100976.28;;;19.21;55.05
82743;BME280;72483;50.656;7.216;2023-11-21T11:18:01;100974.91;;;19.18;54.78
82743;BME280;72483;50.656;7.216;2023-11-21T11:20:32;100979.94;;;19.16;54.89
82743;BME280;72483;50.656;7.216;2023-11-21T11:23:13;100978.56;;;19.14;55.49
82743;BME280;72483;50.656;7.216;2023-11-21T11:25:49;100981.59;;;19.17;55.24
82743;BME280;72483;50.656;7.216;2023-11-21T11:28:21;100985.78;;;19.20;55.11
82743;BME280;72483;50.656;7.216;2023-11-21T11:31:00;100978.81;;;19.17;55.06
82743;BME280;72483;50.656;7.216;2023-11-21T11:33:36;100982.19;;;19.14;55.38
82743;BME280;72483;50.656;7.216;2023-11-21T11:36:06;100984.97;;;19.14;55.54
82743;BME280;72483;50.656;7.216;2023-11-21T11:38:37;100984.97;;;19.14;55.09
82743;BME280;72483;50.656;7.216;2023-11-21T11:41:06;100986.34;;;19.22;55.64
82743;BME280;72483;50.656;7.216;2023-11-21T11:43:34;100988.28;;;19.22;54.82
82743;BME280;72483;50.656;7.216;2023-11-21T11:46:09;100995.28;;;19.19;55.55
82743;BME280;72483;50.656;7.216;2023-11-21T11:48:38;101002.00;;;19.18;55.45
82743;BME280;72483;50.656;7.216;2023-11-21T11:51:06;100993.28;;;19.25;55.01
82743;BME280;72483;50.656;7.216;2023-11-21T11:53:39;100996.34;;;19.28;55.23
82743;BME280;72483;50.656;7.216;2023-11-21T11:56:22;101002.25;;;19.22;55.39
82743;BME280;72483;50.656;7.216;2023-11-21T11:58:51;100996.41;;;19.18;55.60
82743;BME280;72483;50.656;7.216;2023-11-21T12:01:18;101001.47;;;19.16;55.35
82743;BME280;72483;50.656;7.216;2023-11-21T12:04:23;100994.47;;;19.13;54.68
82743;BME280;72483;50.656;7.216;2023-11-21T12:06:55;101004.47;;;19.19;55.42
82743;BME280;72483;50.656;7.216;2023-11-21T12:09:23;100988.56;;;19.20;55.56
82743;BME280;72483;50.656;7.216;2023-11-21T12:11:53;101001.69;;;19.25;55.39
82743;BME280;72483;50.656;7.216;2023-11-21T12:14:22;100998.31;;;19.28;54.94
82743;BME280;72483;50.656;7.216;2023-11-21T12:16:49;100991.63;;;19.24;55.07
82743;BME280;72483;50.656;7.216;2023-11-21T12:19:17;100998.31;;;19.28;54.93
82743;BME280;72483;50.656;7.216;2023-11-21T12:21:43;101012.81;;;19.30;55.45
82743;BME280;72483;50.656;7.216;2023-11-21T12:24:10;101005.00;;;19.32;55.26
82743;BME280;72483;50.656;7.216;2023-11-21T12:26:39;101007.19;;;19.35;54.81
82743;BME280;72483;50.656;7.216;2023-11-21T12:29:06;101010.53;;;19.37;55.33
82743;BME280;72483;50.656;7.216;2023-11-21T12:31:33;101006.06;;;19.36;55.30
82743;BME280;72483;50.656;7.216;2023-11-21T12:34:01;101013.06;;;19.33;54.89
82743;BME280;72483;50.656;7.216;2023-11-21T12:36:28;101018.94;;;19.32;55.21
82743;BME280;72483;50.656;7.216;2023-11-21T12:38:55;101021.75;;;19.32;54.96
82743;BME280;72483;50.656;7.216;2023-11-21T12:41:22;101025.66;;;19.31;55.46
82743;BME280;72483;50.656;7.216;2023-11-21T12:43:48;101023.13;;;19.29;55.01
82743;BME280;72483;50.656;7.216;2023-11-21T12:46:16;101023.97;;;19.30;55.40
82743;BME280;72483;50.656;7.216;2023-11-21T12:48:44;101023.97;;;19.30;55.44
82743;BME280;72483;50.656;7.216;2023-11-21T12:51:11;101022.84;;;19.31;55.06
82743;BME280;72483;50.656;7.216;2023-11-21T12:53:39;101029.81;;;19.33;55.57